sensor_id;sensor_type;location;lat;lon;timestamp;P1;durP1;ratioP1;P2;durP2;ratioP2
18084;SDS011;9169;44.492;11.372;2023-04-16T00:00:12;15.37;;;3.70;;
18084;SDS011;9169;44.492;11.372;2023-04-16T00:02:40;19.10;;;4.60;;
18084;SDS011;9169;44.492;11.372;2023-04-16T00:05:09;18.67;;;4.40;;
18084;SDS011;9169;44.492;11.372;2023-04-16T00:07:38;18.07;;;3.47;;
18084;SDS011;9169;44.492;11.372;2023-04-16T00:10:07;18.67;;;4.13;;
18084;SDS011;9169;44.492;11.372;2023-04-16T00:12:36;20.30;;;4.13;;
18084;SDS011;9169;44.492;11.372;2023-04-16T00:15:05;18.93;;;4.50;;
18084;SDS011;9169;44.492;11.372;2023-04-16T00:17:36;16.97;;;4.37;;
18084;SDS011;9169;44.492;11.372;2023-04-16T00:20:05;19.60;;;4.03;;
18084;SDS011;9169;44.492;11.372;2023-04-16T00:22:35;26.93;;;4.30;;
18084;SDS011;9169;44.492;11.372;2023-04-16T00:25:04;19.27;;;4.60;;
18084;SDS011;9169;44.492;11.372;2023-04-16T00:27:33;18.07;;;3.93;;
18084;SDS011;9169;44.492;11.372;2023-04-16T00:30:02;21.60;;;4.87;;
18084;SDS011;9169;44.492;11.372;2023-04-16T00:32:31;19.10;;;4.17;;
18084;SDS011;9169;44.492;11.372;2023-04-16T00:35:02;18.03;;;4.37;;
18084;SDS011;9169;44.492;11.372;2023-04-16T00:37:30;19.90;;;4.00;;
18084;SDS011;9169;44.492;11.372;2023-04-16T00:39:59;16.27;;;4.23;;
18084;SDS011;9169;44.492;11.372;2023-04-16T00:42:28;18.90;;;4.00;;
18084;SDS011;9169;44.492;11.372;2023-04-16T00:44:57;17.10;;;3.90;;
18084;SDS011;9169;44.492;11.372;2023-04-16T00:47:26;20.93;;;4.23;;
18084;SDS011;9169;44.492;11.372;2023-04-16T00:49:55;19.70;;;3.70;;
18084;SDS011;9169;44.492;11.372;2023-04-16T00:52:25;18.40;;;4.30;;
18084;SDS011;9169;44.492;11.372;2023-04-16T00:54:55;21.20;;;4.23;;
18084;SDS011;9169;44.492;11.372;2023-04-16T00:57:25;20.23;;;4.20;;
18084;SDS011;9169;44.492;11.372;2023-04-16T00:59:53;19.97;;;4.60;;
18084;SDS011;9169;44.492;11.372;2023-04-16T01:02:23;17.57;;;4.70;;
18084;SDS011;9169;44.492;11.372;2023-04-16T01:04:52;16.73;;;3.73;;
18084;SDS011;9169;44.492;11.372;2023-04-16T01:07:22;19.30;;;4.20;;
18084;SDS011;9169;44.492;11.372;2023-04-16T01:09:52;21.70;;;4.00;;
18084;SDS011;9169;44.492;11.372;2023-04-16T01:12:22;21.20;;;4.03;;
18084;SDS011;9169;44.492;11.372;2023-04-16T01:14:51;17.73;;;4.50;;
18084;SDS011;9169;44.492;11.372;2023-04-16T01:17:20;18.30;;;4.37;;
18084;SDS011;9169;44.492;11.372;2023-04-16T01:19:48;17.57;;;4.40;;
18084;SDS011;9169;44.492;11.372;2023-04-16T01:22:18;15.10;;;4.23;;
18084;SDS011;9169;44.492;11.372;2023-04-16T01:24:47;17.23;;;4.23;;
18084;SDS011;9169;44.492;11.372;2023-04-16T01:27:16;17.77;;;4.40;;
18084;SDS011;9169;44.492;11.372;2023-04-16T01:29:45;17.33;;;4.57;;
18084;SDS011;9169;44.492;11.372;2023-04-16T01:32:19;16.30;;;4.03;;
18084;SDS011;9169;44.492;11.372;2023-04-16T01:34:48;17.87;;;4.10;;
18084;SDS011;9169;44.492;11.372;2023-04-16T01:37:18;19.47;;;4.10;;
18084;SDS011;9169;44.492;11.372;2023-04-16T01:39:47;16.93;;;4.30;;
18084;SDS011;9169;44.492;11.372;2023-04-16T01:42:16;17.23;;;4.47;;
18084;SDS011;9169;44.492;11.372;2023-04-16T01:44:45;16.30;;;4.17;;
18084;SDS011;9169;44.492;11.372;2023-04-16T01:47:14;18.47;;;4.60;;
18084;SDS011;9169;44.492;11.372;2023-04-16T01:49:43;16.93;;;4.50;;
18084;SDS011;9169;44.492;11.372;2023-04-16T01:52:13;17.87;;;4.80;;
18084;SDS011;9169;44.492;11.372;2023-04-16T01:54:43;16.70;;;4.07;;
18084;SDS011;9169;44.492;11.372;2023-04-16T01:57:12;18.57;;;4.30;;
18084;SDS011;9169;44.492;11.372;2023-04-16T01:59:41;21.50;;;4.50;;
18084;SDS011;9169;44.492;11.372;2023-04-16T02:02:11;19.00;;;4.67;;
18084;SDS011;9169;44.492;11.372;2023-04-16T02:04:42;20.33;;;4.73;;
18084;SDS011;9169;44.492;11.372;2023-04-16T02:07:12;14.53;;;4.10;;
18084;SDS011;9169;44.492;11.372;2023-04-16T02:09:41;15.80;;;4.13;;
18084;SDS011;9169;44.492;11.372;2023-04-16T02:12:11;17.27;;;4.93;;
18084;SDS011;9169;44.492;11.372;2023-04-16T02:14:40;16.33;;;4.20;;
18084;SDS011;9169;44.492;11.372;2023-04-16T02:17:11;16.23;;;4.80;;
18084;SDS011;9169;44.492;11.372;2023-04-16T02:19:42;18.63;;;4.27;;
18084;SDS011;9169;44.492;11.372;2023-04-16T02:22:11;17.70;;;4.77;;
18084;SDS011;9169;44.492;11.372;2023-04-16T02:24:39;16.10;;;3.73;;
18084;SDS011;9169;44.492;11.372;2023-04-16T02:27:11;21.07;;;4.70;;
18084;SDS011;9169;44.492;11.372;2023-04-16T02:29:40;17.10;;;4.27;;
18084;SDS011;9169;44.492;11.372;2023-04-16T02:32:13;19.10;;;4.63;;
18084;SDS011;9169;44.492;11.372;2023-04-16T02:34:44;18.60;;;4.90;;
18084;SDS011;9169;44.492;11.372;2023-04-16T02:37:14;17.10;;;4.50;;
18084;SDS011;9169;44.492;11.372;2023-04-16T02:39:43;22.23;;;5.07;;
18084;SDS011;9169;44.492;11.372;2023-04-16T02:42:14;22.37;;;4.90;;
18084;SDS011;9169;44.492;11.372;2023-04-16T02:44:43;19.73;;;4.30;;
18084;SDS011;9169;44.492;11.372;2023-04-16T02:47:12;19.53;;;4.40;;
18084;SDS011;9169;44.492;11.372;2023-04-16T02:49:40;21.73;;;5.20;;
18084;SDS011;9169;44.492;11.372;2023-04-16T02:52:09;25.90;;;4.83;;
18084;SDS011;9169;44.492;11.372;2023-04-16T02:54:38;19.23;;;4.97;;
18084;SDS011;9169;44.492;11.372;2023-04-16T02:57:07;19.90;;;5.00;;
18084;SDS011;9169;44.492;11.372;2023-04-16T02:59:37;16.60;;;4.80;;
18084;SDS011;9169;44.492;11.372;2023-04-16T03:02:06;16.63;;;5.30;;
18084;SDS011;9169;44.492;11.372;2023-04-16T03:04:35;17.77;;;5.07;;
18084;SDS011;9169;44.492;11.372;2023-04-16T03:07:03;18.37;;;4.40;;
18084;SDS011;9169;44.492;11.372;2023-04-16T03:09:32;20.80;;;4.97;;
18084;SDS011;9169;44.492;11.372;2023-04-16T03:12:01;25.00;;;5.40;;
18084;SDS011;9169;44.492;11.372;2023-04-16T03:14:30;21.07;;;4.13;;
18084;SDS011;9169;44.492;11.372;2023-04-16T03:17:00;23.83;;;5.50;;
18084;SDS011;9169;44.492;11.372;2023-04-16T03:19:29;20.17;;;4.50;;
18084;SDS011;9169;44.492;11.372;2023-04-16T03:21:57;19.27;;;5.07;;
18084;SDS011;9169;44.492;11.372;2023-04-16T03:24:26;22.73;;;5.67;;
18084;SDS011;9169;44.492;11.372;2023-04-16T03:26:56;22.10;;;5.00;;
18084;SDS011;9169;44.492;11.372;2023-04-16T03:29:25;19.23;;;4.70;;
18084;SDS011;9169;44.492;11.372;2023-04-16T03:31:55;23.70;;;4.90;;
18084;SDS011;9169;44.492;11.372;2023-04-16T03:34:26;19.93;;;4.43;;
18084;SDS011;9169;44.492;11.372;2023-04-16T03:36:55;18.90;;;5.23;;
18084;SDS011;9169;44.492;11.372;2023-04-16T03:39:23;21.57;;;5.43;;
18084;SDS011;9169;44.492;11.372;2023-04-16T03:41:52;20.63;;;4.73;;
18084;SDS011;9169;44.492;11.372;2023-04-16T03:44:21;16.53;;;4.20;;
18084;SDS011;9169;44.492;11.372;2023-04-16T03:46:50;21.30;;;5.10;;
18084;SDS011;9169;44.492;11.372;2023-04-16T03:49:18;18.00;;;5.00;;
18084;SDS011;9169;44.492;11.372;2023-04-16T03:51:49;17.93;;;4.60;;
18084;SDS011;9169;44.492;11.372;2023-04-16T03:54:18;19.60;;;4.90;;
18084;SDS011;9169;44.492;11.372;2023-04-16T03:56:53;22.03;;;5.20;;
18084;SDS011;9169;44.492;11.372;2023-04-16T03:59:22;19.73;;;5.30;;
18084;SDS011;9169;44.492;11.372;2023-04-16T04:01:51;18.83;;;4.67;;
18084;SDS011;9169;44.492;11.372;2023-04-16T04:04:20;22.40;;;4.90;;
18084;SDS011;9169;44.492;11.372;2023-04-16T04:06:50;18.57;;;5.03;;
18084;SDS011;9169;44.492;11.372;2023-04-16T04:09:19;18.47;;;4.97;;
18084;SDS011;9169;44.492;11.372;2023-04-16T04:11:48;17.07;;;4.77;;
18084;SDS011;9169;44.492;11.372;2023-04-16T04:14:17;19.10;;;4.93;;
18084;SDS011;9169;44.492;11.372;2023-04-16T04:16:46;24.63;;;5.10;;
18084;SDS011;9169;44.492;11.372;2023-04-16T04:19:14;25.23;;;5.77;;
18084;SDS011;9169;44.492;11.372;2023-04-16T04:21:43;19.97;;;5.50;;
18084;SDS011;9169;44.492;11.372;2023-04-16T04:24:13;20.67;;;5.20;;
18084;SDS011;9169;44.492;11.372;2023-04-16T04:26:42;20.93;;;5.40;;
18084;SDS011;9169;44.492;11.372;2023-04-16T04:29:12;20.83;;;5.17;;
18084;SDS011;9169;44.492;11.372;2023-04-16T04:31:41;17.83;;;5.07;;
18084;SDS011;9169;44.492;11.372;2023-04-16T04:34:10;17.83;;;5.20;;
18084;SDS011;9169;44.492;11.372;2023-04-16T04:36:38;21.77;;;5.67;;
18084;SDS011;9169;44.492;11.372;2023-04-16T04:39:07;21.67;;;5.60;;
18084;SDS011;9169;44.492;11.372;2023-04-16T04:41:37;18.83;;;5.43;;
18084;SDS011;9169;44.492;11.372;2023-04-16T04:44:06;19.33;;;5.17;;
18084;SDS011;9169;44.492;11.372;2023-04-16T04:46:35;20.23;;;5.80;;
18084;SDS011;9169;44.492;11.372;2023-04-16T04:49:05;20.40;;;5.60;;
18084;SDS011;9169;44.492;11.372;2023-04-16T04:51:33;19.87;;;5.63;;
18084;SDS011;9169;44.492;11.372;2023-04-16T04:54:03;17.87;;;5.53;;
18084;SDS011;9169;44.492;11.372;2023-04-16T04:56:31;26.13;;;5.77;;
18084;SDS011;9169;44.492;11.372;2023-04-16T04:59:01;21.43;;;5.40;;
18084;SDS011;9169;44.492;11.372;2023-04-16T05:01:32;16.63;;;5.10;;
18084;SDS011;9169;44.492;11.372;2023-04-16T05:04:01;19.00;;;5.80;;
18084;SDS011;9169;44.492;11.372;2023-04-16T05:06:30;17.70;;;5.17;;
18084;SDS011;9169;44.492;11.372;2023-04-16T05:08:59;17.90;;;5.30;;
18084;SDS011;9169;44.492;11.372;2023-04-16T05:11:28;17.43;;;5.10;;
18084;SDS011;9169;44.492;11.372;2023-04-16T05:13:56;20.23;;;5.37;;
18084;SDS011;9169;44.492;11.372;2023-04-16T05:16:27;17.63;;;5.80;;
18084;SDS011;9169;44.492;11.372;2023-04-16T05:18:55;17.97;;;5.50;;
18084;SDS011;9169;44.492;11.372;2023-04-16T05:21:24;16.60;;;5.60;;
18084;SDS011;9169;44.492;11.372;2023-04-16T05:23:53;17.83;;;4.97;;
18084;SDS011;9169;44.492;11.372;2023-04-16T05:26:22;18.20;;;6.33;;
18084;SDS011;9169;44.492;11.372;2023-04-16T05:28:50;19.27;;;5.70;;
18084;SDS011;9169;44.492;11.372;2023-04-16T05:31:19;18.13;;;5.90;;
18084;SDS011;9169;44.492;11.372;2023-04-16T05:33:49;18.50;;;5.33;;
18084;SDS011;9169;44.492;11.372;2023-04-16T05:36:18;15.87;;;5.00;;
18084;SDS011;9169;44.492;11.372;2023-04-16T05:38:47;15.27;;;4.80;;
18084;SDS011;9169;44.492;11.372;2023-04-16T05:41:15;17.43;;;5.17;;
18084;SDS011;9169;44.492;11.372;2023-04-16T05:43:44;17.00;;;5.30;;
18084;SDS011;9169;44.492;11.372;2023-04-16T05:46:13;18.03;;;5.53;;
18084;SDS011;9169;44.492;11.372;2023-04-16T05:48:41;19.70;;;5.83;;
18084;SDS011;9169;44.492;11.372;2023-04-16T05:51:11;17.40;;;4.90;;
18084;SDS011;9169;44.492;11.372;2023-04-16T05:53:40;14.30;;;4.50;;
18084;SDS011;9169;44.492;11.372;2023-04-16T05:56:08;20.20;;;5.30;;
18084;SDS011;9169;44.492;11.372;2023-04-16T05:58:37;14.23;;;4.37;;
18084;SDS011;9169;44.492;11.372;2023-04-16T06:01:05;15.80;;;5.03;;
18084;SDS011;9169;44.492;11.372;2023-04-16T06:03:34;19.90;;;4.97;;
18084;SDS011;9169;44.492;11.372;2023-04-16T06:06:03;15.50;;;4.50;;
18084;SDS011;9169;44.492;11.372;2023-04-16T06:08:35;16.20;;;5.00;;
18084;SDS011;9169;44.492;11.372;2023-04-16T06:11:04;16.83;;;5.03;;
18084;SDS011;9169;44.492;11.372;2023-04-16T06:13:33;22.27;;;9.30;;
18084;SDS011;9169;44.492;11.372;2023-04-16T06:16:01;21.00;;;9.30;;
18084;SDS011;9169;44.492;11.372;2023-04-16T06:18:30;15.87;;;5.00;;
18084;SDS011;9169;44.492;11.372;2023-04-16T06:20:59;14.63;;;4.70;;
18084;SDS011;9169;44.492;11.372;2023-04-16T06:23:28;13.90;;;4.17;;
18084;SDS011;9169;44.492;11.372;2023-04-16T06:25:58;15.17;;;4.43;;
18084;SDS011;9169;44.492;11.372;2023-04-16T06:28:26;17.33;;;4.70;;
18084;SDS011;9169;44.492;11.372;2023-04-16T06:30:55;14.80;;;3.97;;
18084;SDS011;9169;44.492;11.372;2023-04-16T06:33:24;11.80;;;3.73;;
18084;SDS011;9169;44.492;11.372;2023-04-16T06:35:53;13.87;;;3.90;;
18084;SDS011;9169;44.492;11.372;2023-04-16T06:38:22;14.47;;;4.20;;
18084;SDS011;9169;44.492;11.372;2023-04-16T06:40:51;15.90;;;3.47;;
18084;SDS011;9169;44.492;11.372;2023-04-16T06:43:21;13.13;;;3.83;;
18084;SDS011;9169;44.492;11.372;2023-04-16T06:45:50;15.20;;;4.77;;
18084;SDS011;9169;44.492;11.372;2023-04-16T06:48:18;14.47;;;3.87;;
18084;SDS011;9169;44.492;11.372;2023-04-16T06:50:47;14.77;;;3.93;;
18084;SDS011;9169;44.492;11.372;2023-04-16T06:53:16;15.63;;;3.90;;
18084;SDS011;9169;44.492;11.372;2023-04-16T06:55:44;12.37;;;3.83;;
18084;SDS011;9169;44.492;11.372;2023-04-16T06:58:13;13.63;;;3.97;;
18084;SDS011;9169;44.492;11.372;2023-04-16T07:00:43;17.47;;;4.40;;
18084;SDS011;9169;44.492;11.372;2023-04-16T07:03:12;10.43;;;3.40;;
18084;SDS011;9169;44.492;11.372;2023-04-16T07:05:41;11.43;;;4.40;;
18084;SDS011;9169;44.492;11.372;2023-04-16T07:08:10;22.10;;;7.80;;
18084;SDS011;9169;44.492;11.372;2023-04-16T07:10:39;10.20;;;4.03;;
18084;SDS011;9169;44.492;11.372;2023-04-16T07:13:07;11.53;;;3.83;;
18084;SDS011;9169;44.492;11.372;2023-04-16T07:15:36;11.40;;;3.20;;
18084;SDS011;9169;44.492;11.372;2023-04-16T07:18:06;13.90;;;4.83;;
18084;SDS011;9169;44.492;11.372;2023-04-16T07:20:35;8.80;;;3.07;;
18084;SDS011;9169;44.492;11.372;2023-04-16T07:23:04;10.73;;;3.53;;
18084;SDS011;9169;44.492;11.372;2023-04-16T07:25:33;9.63;;;2.67;;
18084;SDS011;9169;44.492;11.372;2023-04-16T07:28:01;7.00;;;2.57;;
18084;SDS011;9169;44.492;11.372;2023-04-16T07:30:31;12.63;;;5.03;;
18084;SDS011;9169;44.492;11.372;2023-04-16T07:33:01;8.63;;;3.17;;
18084;SDS011;9169;44.492;11.372;2023-04-16T07:35:31;10.20;;;3.90;;
18084;SDS011;9169;44.492;11.372;2023-04-16T07:38:00;8.60;;;3.33;;
18084;SDS011;9169;44.492;11.372;2023-04-16T07:40:29;10.00;;;2.63;;
18084;SDS011;9169;44.492;11.372;2023-04-16T07:42:57;10.13;;;5.80;;
18084;SDS011;9169;44.492;11.372;2023-04-16T07:45:26;6.93;;;2.50;;
18084;SDS011;9169;44.492;11.372;2023-04-16T07:47:55;8.27;;;2.80;;
18084;SDS011;9169;44.492;11.372;2023-04-16T07:50:24;8.97;;;3.37;;
18084;SDS011;9169;44.492;11.372;2023-04-16T07:52:54;9.00;;;3.70;;
18084;SDS011;9169;44.492;11.372;2023-04-16T07:55:22;6.57;;;3.40;;
18084;SDS011;9169;44.492;11.372;2023-04-16T07:57:51;6.80;;;2.37;;
18084;SDS011;9169;44.492;11.372;2023-04-16T08:00:20;9.27;;;4.80;;
18084;SDS011;9169;44.492;11.372;2023-04-16T08:02:48;9.00;;;5.23;;
18084;SDS011;9169;44.492;11.372;2023-04-16T08:05:17;5.40;;;2.10;;
18084;SDS011;9169;44.492;11.372;2023-04-16T08:07:46;10.70;;;5.87;;
18084;SDS011;9169;44.492;11.372;2023-04-16T08:10:17;13.10;;;7.97;;
18084;SDS011;9169;44.492;11.372;2023-04-16T08:12:45;14.10;;;10.77;;
18084;SDS011;9169;44.492;11.372;2023-04-16T08:15:14;11.03;;;6.90;;
18084;SDS011;9169;44.492;11.372;2023-04-16T08:17:43;6.80;;;3.73;;
18084;SDS011;9169;44.492;11.372;2023-04-16T08:20:11;6.73;;;3.60;;
18084;SDS011;9169;44.492;11.372;2023-04-16T08:22:41;5.67;;;2.40;;
18084;SDS011;9169;44.492;11.372;2023-04-16T08:25:10;6.93;;;4.23;;
18084;SDS011;9169;44.492;11.372;2023-04-16T08:27:40;5.00;;;2.50;;
18084;SDS011;9169;44.492;11.372;2023-04-16T08:30:09;5.43;;;2.13;;
18084;SDS011;9169;44.492;11.372;2023-04-16T08:32:37;9.50;;;4.93;;
18084;SDS011;9169;44.492;11.372;2023-04-16T08:35:06;4.93;;;2.63;;
18084;SDS011;9169;44.492;11.372;2023-04-16T08:37:36;4.07;;;2.20;;
18084;SDS011;9169;44.492;11.372;2023-04-16T08:40:06;6.73;;;2.53;;
18084;SDS011;9169;44.492;11.372;2023-04-16T08:42:38;6.20;;;2.90;;
18084;SDS011;9169;44.492;11.372;2023-04-16T08:45:12;6.80;;;2.90;;
18084;SDS011;9169;44.492;11.372;2023-04-16T08:47:44;4.10;;;2.23;;
18084;SDS011;9169;44.492;11.372;2023-04-16T08:50:13;6.03;;;3.83;;
18084;SDS011;9169;44.492;11.372;2023-04-16T08:52:45;5.80;;;3.17;;
18084;SDS011;9169;44.492;11.372;2023-04-16T08:55:18;4.67;;;2.70;;
18084;SDS011;9169;44.492;11.372;2023-04-16T08:57:56;4.57;;;2.40;;
18084;SDS011;9169;44.492;11.372;2023-04-16T09:00:32;4.70;;;2.63;;
18084;SDS011;9169;44.492;11.372;2023-04-16T09:03:02;4.57;;;2.70;;
18084;SDS011;9169;44.492;11.372;2023-04-16T09:05:31;5.90;;;2.90;;
18084;SDS011;9169;44.492;11.372;2023-04-16T09:08:00;4.83;;;3.00;;
18084;SDS011;9169;44.492;11.372;2023-04-16T09:10:29;3.90;;;2.27;;
18084;SDS011;9169;44.492;11.372;2023-04-16T09:12:59;5.33;;;2.60;;
18084;SDS011;9169;44.492;11.372;2023-04-16T09:15:28;6.53;;;3.80;;
18084;SDS011;9169;44.492;11.372;2023-04-16T09:17:58;5.60;;;2.90;;
18084;SDS011;9169;44.492;11.372;2023-04-16T09:20:26;4.77;;;2.67;;
18084;SDS011;9169;44.492;11.372;2023-04-16T09:22:55;6.63;;;2.20;;
18084;SDS011;9169;44.492;11.372;2023-04-16T09:25:24;4.80;;;2.20;;
18084;SDS011;9169;44.492;11.372;2023-04-16T09:27:52;3.40;;;2.30;;
18084;SDS011;9169;44.492;11.372;2023-04-16T09:30:23;3.10;;;1.90;;
18084;SDS011;9169;44.492;11.372;2023-04-16T09:33:11;5.13;;;2.87;;
18084;SDS011;9169;44.492;11.372;2023-04-16T09:35:45;3.70;;;2.47;;
18084;SDS011;9169;44.492;11.372;2023-04-16T09:38:14;5.83;;;2.70;;
18084;SDS011;9169;44.492;11.372;2023-04-16T09:40:43;3.30;;;2.33;;
18084;SDS011;9169;44.492;11.372;2023-04-16T09:43:13;7.00;;;2.60;;
18084;SDS011;9169;44.492;11.372;2023-04-16T09:45:50;6.90;;;2.60;;
18084;SDS011;9169;44.492;11.372;2023-04-16T09:48:27;3.77;;;2.57;;
18084;SDS011;9169;44.492;11.372;2023-04-16T09:50:56;3.53;;;2.03;;
18084;SDS011;9169;44.492;11.372;2023-04-16T09:53:26;4.13;;;2.00;;
18084;SDS011;9169;44.492;11.372;2023-04-16T09:55:55;3.70;;;2.43;;
18084;SDS011;9169;44.492;11.372;2023-04-16T09:58:24;2.80;;;1.70;;
18084;SDS011;9169;44.492;11.372;2023-04-16T10:00:55;14.33;;;3.37;;
18084;SDS011;9169;44.492;11.372;2023-04-16T10:03:28;3.50;;;1.83;;
18084;SDS011;9169;44.492;11.372;2023-04-16T10:05:59;3.43;;;2.03;;
18084;SDS011;9169;44.492;11.372;2023-04-16T10:08:28;4.20;;;2.40;;
18084;SDS011;9169;44.492;11.372;2023-04-16T10:10:57;3.83;;;2.23;;
18084;SDS011;9169;44.492;11.372;2023-04-16T10:13:26;2.90;;;1.80;;
18084;SDS011;9169;44.492;11.372;2023-04-16T10:15:58;3.50;;;1.70;;
18084;SDS011;9169;44.492;11.372;2023-04-16T10:18:27;3.87;;;1.80;;
18084;SDS011;9169;44.492;11.372;2023-04-16T10:20:56;2.70;;;1.77;;
18084;SDS011;9169;44.492;11.372;2023-04-16T10:23:26;2.73;;;1.70;;
18084;SDS011;9169;44.492;11.372;2023-04-16T10:25:55;8.43;;;2.10;;
18084;SDS011;9169;44.492;11.372;2023-04-16T10:28:25;4.03;;;1.90;;
18084;SDS011;9169;44.492;11.372;2023-04-16T10:30:55;3.00;;;1.73;;
18084;SDS011;9169;44.492;11.372;2023-04-16T10:33:27;4.20;;;2.03;;
18084;SDS011;9169;44.492;11.372;2023-04-16T10:36:07;4.93;;;2.70;;
18084;SDS011;9169;44.492;11.372;2023-04-16T10:38:38;4.00;;;2.23;;
18084;SDS011;9169;44.492;11.372;2023-04-16T10:41:07;3.90;;;2.20;;
18084;SDS011;9169;44.492;11.372;2023-04-16T10:43:39;4.90;;;2.50;;
18084;SDS011;9169;44.492;11.372;2023-04-16T10:46:21;4.83;;;2.33;;
18084;SDS011;9169;44.492;11.372;2023-04-16T10:48:52;4.80;;;2.10;;
18084;SDS011;9169;44.492;11.372;2023-04-16T10:51:22;5.87;;;1.80;;
18084;SDS011;9169;44.492;11.372;2023-04-16T10:53:54;3.83;;;2.00;;
18084;SDS011;9169;44.492;11.372;2023-04-16T10:56:24;4.77;;;2.27;;
18084;SDS011;9169;44.492;11.372;2023-04-16T10:58:53;3.50;;;2.10;;
18084;SDS011;9169;44.492;11.372;2023-04-16T11:01:28;5.30;;;1.60;;
18084;SDS011;9169;44.492;11.372;2023-04-16T11:03:58;4.00;;;1.90;;
18084;SDS011;9169;44.492;11.372;2023-04-16T11:06:28;2.60;;;1.50;;
18084;SDS011;9169;44.492;11.372;2023-04-16T11:08:57;3.57;;;1.73;;
18084;SDS011;9169;44.492;11.372;2023-04-16T11:11:26;2.83;;;1.70;;
18084;SDS011;9169;44.492;11.372;2023-04-16T11:14:04;2.80;;;1.50;;
18084;SDS011;9169;44.492;11.372;2023-04-16T11:16:40;5.17;;;1.63;;
18084;SDS011;9169;44.492;11.372;2023-04-16T11:19:14;3.03;;;1.80;;
18084;SDS011;9169;44.492;11.372;2023-04-16T11:21:44;5.03;;;2.70;;
18084;SDS011;9169;44.492;11.372;2023-04-16T11:24:13;4.63;;;1.50;;
18084;SDS011;9169;44.492;11.372;2023-04-16T11:26:42;3.50;;;1.67;;
18084;SDS011;9169;44.492;11.372;2023-04-16T11:29:12;2.80;;;1.50;;
18084;SDS011;9169;44.492;11.372;2023-04-16T11:31:44;3.03;;;1.40;;
18084;SDS011;9169;44.492;11.372;2023-04-16T11:34:17;2.77;;;1.40;;
18084;SDS011;9169;44.492;11.372;2023-04-16T11:36:47;4.10;;;1.43;;
18084;SDS011;9169;44.492;11.372;2023-04-16T11:39:16;2.93;;;1.40;;
18084;SDS011;9169;44.492;11.372;2023-04-16T11:41:46;2.70;;;1.30;;
18084;SDS011;9169;44.492;11.372;2023-04-16T11:44:16;5.77;;;1.83;;
18084;SDS011;9169;44.492;11.372;2023-04-16T11:46:50;2.53;;;1.40;;
18084;SDS011;9169;44.492;11.372;2023-04-16T11:49:25;2.90;;;1.43;;
18084;SDS011;9169;44.492;11.372;2023-04-16T11:51:55;3.10;;;1.43;;
18084;SDS011;9169;44.492;11.372;2023-04-16T11:54:24;3.90;;;1.47;;
18084;SDS011;9169;44.492;11.372;2023-04-16T11:56:53;3.73;;;2.43;;
18084;SDS011;9169;44.492;11.372;2023-04-16T11:59:22;3.50;;;2.13;;
18084;SDS011;9169;44.492;11.372;2023-04-16T12:01:52;4.47;;;1.50;;
18084;SDS011;9169;44.492;11.372;2023-04-16T12:04:22;3.10;;;1.80;;
18084;SDS011;9169;44.492;11.372;2023-04-16T12:07:05;4.13;;;2.17;;
18084;SDS011;9169;44.492;11.372;2023-04-16T12:09:38;2.80;;;1.20;;
18084;SDS011;9169;44.492;11.372;2023-04-16T12:14:56;3.43;;;2.27;;
18084;SDS011;9169;44.492;11.372;2023-04-16T12:17:31;4.60;;;2.27;;
18084;SDS011;9169;44.492;11.372;2023-04-16T12:20:01;4.20;;;1.20;;
18084;SDS011;9169;44.492;11.372;2023-04-16T12:22:33;3.20;;;1.70;;
18084;SDS011;9169;44.492;11.372;2023-04-16T12:25:04;7.17;;;1.30;;
18084;SDS011;9169;44.492;11.372;2023-04-16T12:27:40;3.73;;;1.47;;
18084;SDS011;9169;44.492;11.372;2023-04-16T12:30:11;13.40;;;11.83;;
18084;SDS011;9169;44.492;11.372;2023-04-16T12:32:43;3.33;;;2.37;;
18084;SDS011;9169;44.492;11.372;2023-04-16T12:35:12;5.80;;;5.03;;
18084;SDS011;9169;44.492;11.372;2023-04-16T12:37:55;6.00;;;2.70;;
18084;SDS011;9169;44.492;11.372;2023-04-16T12:40:24;3.63;;;2.43;;
18084;SDS011;9169;44.492;11.372;2023-04-16T12:42:53;3.23;;;1.20;;
18084;SDS011;9169;44.492;11.372;2023-04-16T12:45:22;4.00;;;2.60;;
18084;SDS011;9169;44.492;11.372;2023-04-16T12:47:52;2.93;;;1.70;;
18084;SDS011;9169;44.492;11.372;2023-04-16T12:50:21;2.60;;;1.70;;
18084;SDS011;9169;44.492;11.372;2023-04-16T12:52:50;3.43;;;1.90;;
18084;SDS011;9169;44.492;11.372;2023-04-16T12:55:18;2.60;;;1.27;;
18084;SDS011;9169;44.492;11.372;2023-04-16T12:57:47;4.10;;;1.90;;
18084;SDS011;9169;44.492;11.372;2023-04-16T13:00:18;2.70;;;1.50;;
18084;SDS011;9169;44.492;11.372;2023-04-16T13:02:47;2.40;;;1.27;;
18084;SDS011;9169;44.492;11.372;2023-04-16T13:05:17;3.53;;;1.47;;
18084;SDS011;9169;44.492;11.372;2023-04-16T13:07:46;2.63;;;1.50;;
18084;SDS011;9169;44.492;11.372;2023-04-16T13:10:14;2.80;;;1.40;;
18084;SDS011;9169;44.492;11.372;2023-04-16T13:12:43;4.80;;;2.80;;
18084;SDS011;9169;44.492;11.372;2023-04-16T13:15:12;5.13;;;4.33;;
18084;SDS011;9169;44.492;11.372;2023-04-16T13:17:40;6.20;;;5.13;;
18084;SDS011;9169;44.492;11.372;2023-04-16T13:20:09;2.23;;;1.27;;
18084;SDS011;9169;44.492;11.372;2023-04-16T13:22:39;3.87;;;1.97;;
18084;SDS011;9169;44.492;11.372;2023-04-16T13:25:08;4.43;;;1.50;;
18084;SDS011;9169;44.492;11.372;2023-04-16T13:27:37;4.30;;;1.90;;
18084;SDS011;9169;44.492;11.372;2023-04-16T13:30:06;6.73;;;1.63;;
18084;SDS011;9169;44.492;11.372;2023-04-16T13:32:35;6.47;;;4.90;;
18084;SDS011;9169;44.492;11.372;2023-04-16T13:35:09;2.70;;;1.17;;
18084;SDS011;9169;44.492;11.372;2023-04-16T13:37:39;4.20;;;1.50;;
18084;SDS011;9169;44.492;11.372;2023-04-16T13:40:08;4.00;;;2.77;;
18084;SDS011;9169;44.492;11.372;2023-04-16T13:42:37;4.60;;;1.20;;
18084;SDS011;9169;44.492;11.372;2023-04-16T13:45:06;2.87;;;1.00;;
18084;SDS011;9169;44.492;11.372;2023-04-16T13:47:37;3.23;;;1.70;;
18084;SDS011;9169;44.492;11.372;2023-04-16T13:50:07;4.30;;;2.30;;
18084;SDS011;9169;44.492;11.372;2023-04-16T13:52:36;3.77;;;1.40;;
18084;SDS011;9169;44.492;11.372;2023-04-16T13:55:07;3.00;;;1.47;;
18084;SDS011;9169;44.492;11.372;2023-04-16T13:57:36;6.40;;;2.73;;
18084;SDS011;9169;44.492;11.372;2023-04-16T14:00:05;9.30;;;4.77;;
18084;SDS011;9169;44.492;11.372;2023-04-16T14:02:38;4.97;;;3.40;;
18084;SDS011;9169;44.492;11.372;2023-04-16T14:05:08;3.40;;;2.10;;
18084;SDS011;9169;44.492;11.372;2023-04-16T14:07:36;3.43;;;1.47;;
18084;SDS011;9169;44.492;11.372;2023-04-16T14:10:07;5.60;;;3.97;;
18084;SDS011;9169;44.492;11.372;2023-04-16T14:12:37;3.33;;;2.03;;
18084;SDS011;9169;44.492;11.372;2023-04-16T14:15:06;3.63;;;1.37;;
18084;SDS011;9169;44.492;11.372;2023-04-16T14:17:36;4.60;;;1.30;;
18084;SDS011;9169;44.492;11.372;2023-04-16T14:20:05;6.53;;;1.80;;
18084;SDS011;9169;44.492;11.372;2023-04-16T14:22:34;4.60;;;3.07;;
18084;SDS011;9169;44.492;11.372;2023-04-16T14:25:03;3.03;;;1.30;;
18084;SDS011;9169;44.492;11.372;2023-04-16T14:27:34;2.93;;;1.70;;
18084;SDS011;9169;44.492;11.372;2023-04-16T14:30:03;8.80;;;5.53;;
18084;SDS011;9169;44.492;11.372;2023-04-16T14:32:32;3.67;;;1.50;;
18084;SDS011;9169;44.492;11.372;2023-04-16T14:35:02;16.73;;;12.97;;
18084;SDS011;9169;44.492;11.372;2023-04-16T14:37:31;7.47;;;5.13;;
18084;SDS011;9169;44.492;11.372;2023-04-16T14:40:01;2.40;;;1.10;;
18084;SDS011;9169;44.492;11.372;2023-04-16T14:42:35;7.20;;;4.90;;
18084;SDS011;9169;44.492;11.372;2023-04-16T14:45:04;3.40;;;2.10;;
18084;SDS011;9169;44.492;11.372;2023-04-16T14:47:34;6.60;;;4.63;;
18084;SDS011;9169;44.492;11.372;2023-04-16T14:50:04;4.30;;;1.43;;
18084;SDS011;9169;44.492;11.372;2023-04-16T14:52:33;5.43;;;3.93;;
18084;SDS011;9169;44.492;11.372;2023-04-16T14:55:02;7.70;;;5.33;;
18084;SDS011;9169;44.492;11.372;2023-04-16T14:57:31;6.90;;;5.13;;